Pennsboro, West Virginia
Current Conditions -  °F | °C
As of 11:53 PM on Friday 19 Dec 2014 (Local Time) from KPKB Reporting Station
Overcast Overcast  
Wind Chill: 30°   Ceiling: 2000
Heat Index: 30°   Visibility: 10mi
Dew Point: 22°   Wind: 0mph
Humidity: 72%   Direction: NA
Pressure: 30.3"   Gusts: NA
Location:  39.29°N, 80.97°W
Report Text: KPKB 200453Z AUTO 00000KT 10SM OVC020 M01/M06 A3030 RMK AO2 SLP267 T10111056 410061022
Loading
Personal Weather Stations






























Interactive Weather Map New forecast layout! Learn more

10-Day Weather Forecast

Advertisements
Track Severe Weather on mobile